sensor_id;sensor_type;location;lat;lon;timestamp;P1;durP1;ratioP1;P2;durP2;ratioP2
483;SDS011;228;48.922;12.198;2022-11-15T00:00:14;14.63;;;8.87;;
483;SDS011;228;48.922;12.198;2022-11-15T00:02:59;14.87;;;8.67;;
483;SDS011;228;48.922;12.198;2022-11-15T00:05:44;14.80;;;8.83;;
483;SDS011;228;48.922;12.198;2022-11-15T00:08:30;15.13;;;8.57;;
483;SDS011;228;48.922;12.198;2022-11-15T00:11:15;16.10;;;8.47;;
483;SDS011;228;48.922;12.198;2022-11-15T00:14:00;18.77;;;9.67;;
483;SDS011;228;48.922;12.198;2022-11-15T00:16:48;11.67;;;8.73;;
483;SDS011;228;48.922;12.198;2022-11-15T00:19:32;17.30;;;10.17;;
483;SDS011;228;48.922;12.198;2022-11-15T00:22:17;18.30;;;9.93;;
483;SDS011;228;48.922;12.198;2022-11-15T00:25:02;14.57;;;9.90;;
483;SDS011;228;48.922;12.198;2022-11-15T00:27:47;18.63;;;10.90;;
483;SDS011;228;48.922;12.198;2022-11-15T00:30:32;20.53;;;11.47;;
483;SDS011;228;48.922;12.198;2022-11-15T00:33:16;19.03;;;11.93;;
483;SDS011;228;48.922;12.198;2022-11-15T00:36:05;25.07;;;13.47;;
483;SDS011;228;48.922;12.198;2022-11-15T00:38:55;21.07;;;11.80;;
483;SDS011;228;48.922;12.198;2022-11-15T00:41:40;19.30;;;11.97;;
483;SDS011;228;48.922;12.198;2022-11-15T00:44:25;25.83;;;13.90;;
483;SDS011;228;48.922;12.198;2022-11-15T00:47:09;19.03;;;11.70;;
483;SDS011;228;48.922;12.198;2022-11-15T00:49:54;23.17;;;11.87;;
483;SDS011;228;48.922;12.198;2022-11-15T00:52:39;18.53;;;11.03;;
483;SDS011;228;48.922;12.198;2022-11-15T00:55:23;19.50;;;11.13;;
483;SDS011;228;48.922;12.198;2022-11-15T00:58:08;17.07;;;10.87;;
483;SDS011;228;48.922;12.198;2022-11-15T01:00:53;17.13;;;10.73;;
483;SDS011;228;48.922;12.198;2022-11-15T01:03:38;17.13;;;10.03;;
483;SDS011;228;48.922;12.198;2022-11-15T01:06:24;16.90;;;10.37;;
483;SDS011;228;48.922;12.198;2022-11-15T01:09:09;18.47;;;10.67;;
483;SDS011;228;48.922;12.198;2022-11-15T01:11:53;16.13;;;9.70;;
483;SDS011;228;48.922;12.198;2022-11-15T01:14:38;17.27;;;10.20;;
483;SDS011;228;48.922;12.198;2022-11-15T01:17:23;19.17;;;10.87;;
483;SDS011;228;48.922;12.198;2022-11-15T01:20:10;16.53;;;9.97;;
483;SDS011;228;48.922;12.198;2022-11-15T01:22:55;15.43;;;9.67;;
483;SDS011;228;48.922;12.198;2022-11-15T01:25:40;14.83;;;9.93;;
483;SDS011;228;48.922;12.198;2022-11-15T01:28:24;19.83;;;10.90;;
483;SDS011;228;48.922;12.198;2022-11-15T01:31:13;16.67;;;10.03;;
483;SDS011;228;48.922;12.198;2022-11-15T01:34:03;14.47;;;9.57;;
483;SDS011;228;48.922;12.198;2022-11-15T01:36:48;15.70;;;9.50;;
483;SDS011;228;48.922;12.198;2022-11-15T01:39:33;13.63;;;8.57;;
483;SDS011;228;48.922;12.198;2022-11-15T01:42:18;16.03;;;10.40;;
483;SDS011;228;48.922;12.198;2022-11-15T01:45:03;15.20;;;9.47;;
483;SDS011;228;48.922;12.198;2022-11-15T01:47:48;16.30;;;9.60;;
483;SDS011;228;48.922;12.198;2022-11-15T01:50:37;14.27;;;9.27;;
483;SDS011;228;48.922;12.198;2022-11-15T01:53:23;13.63;;;9.03;;
483;SDS011;228;48.922;12.198;2022-11-15T01:56:11;15.37;;;9.47;;
483;SDS011;228;48.922;12.198;2022-11-15T01:59:01;14.70;;;9.20;;
483;SDS011;228;48.922;12.198;2022-11-15T02:01:48;17.33;;;9.67;;
483;SDS011;228;48.922;12.198;2022-11-15T02:04:35;12.30;;;8.50;;
483;SDS011;228;48.922;12.198;2022-11-15T02:07:25;15.33;;;9.73;;
483;SDS011;228;48.922;12.198;2022-11-15T02:10:13;15.07;;;9.10;;
483;SDS011;228;48.922;12.198;2022-11-15T02:13:03;12.63;;;8.23;;
483;SDS011;228;48.922;12.198;2022-11-15T02:19:00;13.43;;;9.27;;
483;SDS011;228;48.922;12.198;2022-11-15T02:35:07;12.40;;;8.33;;
483;SDS011;228;48.922;12.198;2022-11-15T02:38:22;11.97;;;7.93;;
483;SDS011;228;48.922;12.198;2022-11-15T02:41:25;14.13;;;9.13;;
483;SDS011;228;48.922;12.198;2022-11-15T02:44:42;16.63;;;9.27;;
483;SDS011;228;48.922;12.198;2022-11-15T02:47:29;14.17;;;8.37;;
483;SDS011;228;48.922;12.198;2022-11-15T02:50:20;14.23;;;7.90;;
483;SDS011;228;48.922;12.198;2022-11-15T02:53:08;12.53;;;8.43;;
483;SDS011;228;48.922;12.198;2022-11-15T02:55:53;14.17;;;8.50;;
483;SDS011;228;48.922;12.198;2022-11-15T02:58:56;13.60;;;9.10;;
483;SDS011;228;48.922;12.198;2022-11-15T03:05:09;13.60;;;8.23;;
483;SDS011;228;48.922;12.198;2022-11-15T03:08:26;13.10;;;8.27;;
483;SDS011;228;48.922;12.198;2022-11-15T03:11:20;12.40;;;8.47;;
483;SDS011;228;48.922;12.198;2022-11-15T03:20:11;12.40;;;7.70;;
483;SDS011;228;48.922;12.198;2022-11-15T03:23:00;11.00;;;7.13;;
483;SDS011;228;48.922;12.198;2022-11-15T03:25:50;11.20;;;7.43;;
483;SDS011;228;48.922;12.198;2022-11-15T03:28:37;10.63;;;7.23;;
483;SDS011;228;48.922;12.198;2022-11-15T03:31:27;14.83;;;8.33;;
483;SDS011;228;48.922;12.198;2022-11-15T03:34:32;11.20;;;7.00;;
483;SDS011;228;48.922;12.198;2022-11-15T03:37:34;11.77;;;8.40;;
483;SDS011;228;48.922;12.198;2022-11-15T03:40:40;13.80;;;8.00;;
483;SDS011;228;48.922;12.198;2022-11-15T03:46:26;9.87;;;6.77;;
483;SDS011;228;48.922;12.198;2022-11-15T03:49:33;10.17;;;6.73;;
483;SDS011;228;48.922;12.198;2022-11-15T03:52:21;9.30;;;6.70;;
483;SDS011;228;48.922;12.198;2022-11-15T03:55:07;8.97;;;6.23;;
483;SDS011;228;48.922;12.198;2022-11-15T03:57:56;9.17;;;7.07;;
483;SDS011;228;48.922;12.198;2022-11-15T04:00:43;10.47;;;6.83;;
483;SDS011;228;48.922;12.198;2022-11-15T04:03:28;10.57;;;7.03;;
483;SDS011;228;48.922;12.198;2022-11-15T04:06:13;11.53;;;7.43;;
483;SDS011;228;48.922;12.198;2022-11-15T04:08:58;11.47;;;7.63;;
483;SDS011;228;48.922;12.198;2022-11-15T04:11:42;10.73;;;7.07;;
483;SDS011;228;48.922;12.198;2022-11-15T04:14:27;9.30;;;6.93;;
483;SDS011;228;48.922;12.198;2022-11-15T04:17:12;12.10;;;7.43;;
483;SDS011;228;48.922;12.198;2022-11-15T04:19:56;17.17;;;8.27;;
483;SDS011;228;48.922;12.198;2022-11-15T04:23:00;13.60;;;8.63;;
483;SDS011;228;48.922;12.198;2022-11-15T04:26:17;12.77;;;7.33;;
483;SDS011;228;48.922;12.198;2022-11-15T04:29:04;10.53;;;7.30;;
483;SDS011;228;48.922;12.198;2022-11-15T04:32:07;10.80;;;7.10;;
483;SDS011;228;48.922;12.198;2022-11-15T04:34:52;10.90;;;6.70;;
483;SDS011;228;48.922;12.198;2022-11-15T04:37:36;9.93;;;6.47;;
483;SDS011;228;48.922;12.198;2022-11-15T04:40:21;11.83;;;7.53;;
483;SDS011;228;48.922;12.198;2022-11-15T04:43:06;14.87;;;8.00;;
483;SDS011;228;48.922;12.198;2022-11-15T04:45:50;12.67;;;7.40;;
483;SDS011;228;48.922;12.198;2022-11-15T04:48:35;11.63;;;7.33;;
483;SDS011;228;48.922;12.198;2022-11-15T04:51:20;19.37;;;10.10;;
483;SDS011;228;48.922;12.198;2022-11-15T04:54:05;15.27;;;8.40;;
483;SDS011;228;48.922;12.198;2022-11-15T04:56:49;18.40;;;8.03;;
483;SDS011;228;48.922;12.198;2022-11-15T04:59:34;9.07;;;6.57;;
483;SDS011;228;48.922;12.198;2022-11-15T05:02:19;10.70;;;6.70;;
483;SDS011;228;48.922;12.198;2022-11-15T05:05:04;10.13;;;7.53;;
483;SDS011;228;48.922;12.198;2022-11-15T05:07:49;12.07;;;6.70;;
483;SDS011;228;48.922;12.198;2022-11-15T05:10:33;9.17;;;6.70;;
483;SDS011;228;48.922;12.198;2022-11-15T05:13:18;8.43;;;6.20;;
483;SDS011;228;48.922;12.198;2022-11-15T05:16:03;9.23;;;6.07;;
483;SDS011;228;48.922;12.198;2022-11-15T05:18:52;8.70;;;6.17;;
483;SDS011;228;48.922;12.198;2022-11-15T05:21:37;8.93;;;6.33;;
483;SDS011;228;48.922;12.198;2022-11-15T05:24:22;9.33;;;6.50;;
483;SDS011;228;48.922;12.198;2022-11-15T05:27:07;8.90;;;6.30;;
483;SDS011;228;48.922;12.198;2022-11-15T05:29:51;7.53;;;5.90;;
483;SDS011;228;48.922;12.198;2022-11-15T05:32:36;7.60;;;5.27;;
483;SDS011;228;48.922;12.198;2022-11-15T05:35:32;7.13;;;5.90;;
483;SDS011;228;48.922;12.198;2022-11-15T05:38:23;7.80;;;5.63;;
483;SDS011;228;48.922;12.198;2022-11-15T05:41:08;7.57;;;6.20;;
483;SDS011;228;48.922;12.198;2022-11-15T05:43:53;13.53;;;10.60;;
483;SDS011;228;48.922;12.198;2022-11-15T05:46:38;19.60;;;14.93;;
483;SDS011;228;48.922;12.198;2022-11-15T05:49:25;15.60;;;12.10;;
483;SDS011;228;48.922;12.198;2022-11-15T05:52:16;11.87;;;8.90;;
483;SDS011;228;48.922;12.198;2022-11-15T05:55:04;11.03;;;8.87;;
483;SDS011;228;48.922;12.198;2022-11-15T05:57:51;11.70;;;8.27;;
483;SDS011;228;48.922;12.198;2022-11-15T06:00:36;11.40;;;8.27;;
483;SDS011;228;48.922;12.198;2022-11-15T06:03:21;11.00;;;8.67;;
483;SDS011;228;48.922;12.198;2022-11-15T06:06:06;11.13;;;7.67;;
483;SDS011;228;48.922;12.198;2022-11-15T06:08:50;9.73;;;7.17;;
483;SDS011;228;48.922;12.198;2022-11-15T06:11:35;8.70;;;5.93;;
483;SDS011;228;48.922;12.198;2022-11-15T06:14:20;10.90;;;7.10;;
483;SDS011;228;48.922;12.198;2022-11-15T06:17:05;9.47;;;6.67;;
483;SDS011;228;48.922;12.198;2022-11-15T06:19:56;9.50;;;7.20;;
483;SDS011;228;48.922;12.198;2022-11-15T06:23:19;8.57;;;6.30;;
483;SDS011;228;48.922;12.198;2022-11-15T06:26:04;16.27;;;7.17;;
483;SDS011;228;48.922;12.198;2022-11-15T06:28:48;16.47;;;7.27;;
483;SDS011;228;48.922;12.198;2022-11-15T06:31:34;9.13;;;6.60;;
483;SDS011;228;48.922;12.198;2022-11-15T06:34:19;9.27;;;7.07;;
483;SDS011;228;48.922;12.198;2022-11-15T06:37:03;8.93;;;7.07;;
483;SDS011;228;48.922;12.198;2022-11-15T06:39:48;6.13;;;5.37;;
483;SDS011;228;48.922;12.198;2022-11-15T06:42:32;7.53;;;5.60;;
483;SDS011;228;48.922;12.198;2022-11-15T06:45:17;9.23;;;5.80;;
483;SDS011;228;48.922;12.198;2022-11-15T06:48:01;14.97;;;5.40;;
483;SDS011;228;48.922;12.198;2022-11-15T06:50:50;8.93;;;6.37;;
483;SDS011;228;48.922;12.198;2022-11-15T06:53:40;10.27;;;6.77;;
483;SDS011;228;48.922;12.198;2022-11-15T06:56:24;13.03;;;9.00;;
483;SDS011;228;48.922;12.198;2022-11-15T06:59:09;12.17;;;8.50;;
483;SDS011;228;48.922;12.198;2022-11-15T07:01:55;11.37;;;7.50;;
483;SDS011;228;48.922;12.198;2022-11-15T07:05:01;10.13;;;7.70;;
483;SDS011;228;48.922;12.198;2022-11-15T07:07:50;13.17;;;8.20;;
483;SDS011;228;48.922;12.198;2022-11-15T07:10:37;16.97;;;9.10;;
483;SDS011;228;48.922;12.198;2022-11-15T07:13:24;14.40;;;9.23;;
483;SDS011;228;48.922;12.198;2022-11-15T07:16:10;18.90;;;11.87;;
483;SDS011;228;48.922;12.198;2022-11-15T07:18:55;18.50;;;11.13;;
483;SDS011;228;48.922;12.198;2022-11-15T07:21:40;16.73;;;11.07;;
483;SDS011;228;48.922;12.198;2022-11-15T07:24:25;13.13;;;10.00;;
483;SDS011;228;48.922;12.198;2022-11-15T07:27:10;16.63;;;10.70;;
483;SDS011;228;48.922;12.198;2022-11-15T07:29:54;12.50;;;8.60;;
483;SDS011;228;48.922;12.198;2022-11-15T07:32:39;17.17;;;10.07;;
483;SDS011;228;48.922;12.198;2022-11-15T07:35:24;19.53;;;10.70;;
483;SDS011;228;48.922;12.198;2022-11-15T07:38:10;14.17;;;9.20;;
483;SDS011;228;48.922;12.198;2022-11-15T07:40:56;15.73;;;10.00;;
483;SDS011;228;48.922;12.198;2022-11-15T07:43:43;9.93;;;6.73;;
483;SDS011;228;48.922;12.198;2022-11-15T07:46:28;8.73;;;6.60;;
483;SDS011;228;48.922;12.198;2022-11-15T07:49:12;6.60;;;5.83;;
483;SDS011;228;48.922;12.198;2022-11-15T07:51:57;7.33;;;5.53;;
483;SDS011;228;48.922;12.198;2022-11-15T07:54:42;7.87;;;6.37;;
483;SDS011;228;48.922;12.198;2022-11-15T07:57:27;8.70;;;5.90;;
483;SDS011;228;48.922;12.198;2022-11-15T08:00:11;7.33;;;5.93;;
483;SDS011;228;48.922;12.198;2022-11-15T08:03:07;9.20;;;6.47;;
483;SDS011;228;48.922;12.198;2022-11-15T08:05:58;8.23;;;6.40;;
483;SDS011;228;48.922;12.198;2022-11-15T08:08:43;9.67;;;6.90;;
483;SDS011;228;48.922;12.198;2022-11-15T08:11:28;10.03;;;6.57;;
483;SDS011;228;48.922;12.198;2022-11-15T08:14:12;8.43;;;7.20;;
483;SDS011;228;48.922;12.198;2022-11-15T08:17:03;13.97;;;8.90;;
483;SDS011;228;48.922;12.198;2022-11-15T08:19:48;14.33;;;9.30;;
483;SDS011;228;48.922;12.198;2022-11-15T08:22:33;13.63;;;9.40;;
483;SDS011;228;48.922;12.198;2022-11-15T08:25:18;13.87;;;8.93;;
483;SDS011;228;48.922;12.198;2022-11-15T08:28:04;11.70;;;8.27;;
483;SDS011;228;48.922;12.198;2022-11-15T08:30:50;12.47;;;8.73;;
483;SDS011;228;48.922;12.198;2022-11-15T08:33:35;10.77;;;8.00;;
483;SDS011;228;48.922;12.198;2022-11-15T08:36:20;10.37;;;7.77;;
483;SDS011;228;48.922;12.198;2022-11-15T08:39:04;11.67;;;7.87;;
483;SDS011;228;48.922;12.198;2022-11-15T08:41:49;9.63;;;7.30;;
483;SDS011;228;48.922;12.198;2022-11-15T08:44:34;11.07;;;7.90;;
483;SDS011;228;48.922;12.198;2022-11-15T08:47:18;10.83;;;7.50;;
483;SDS011;228;48.922;12.198;2022-11-15T08:50:03;11.07;;;7.93;;
483;SDS011;228;48.922;12.198;2022-11-15T08:52:49;11.23;;;7.87;;
483;SDS011;228;48.922;12.198;2022-11-15T08:55:35;11.50;;;8.23;;
483;SDS011;228;48.922;12.198;2022-11-15T08:58:21;10.17;;;7.83;;
483;SDS011;228;48.922;12.198;2022-11-15T09:01:06;12.37;;;8.13;;
483;SDS011;228;48.922;12.198;2022-11-15T09:04:04;15.10;;;7.73;;
483;SDS011;228;48.922;12.198;2022-11-15T09:06:49;12.07;;;8.07;;
483;SDS011;228;48.922;12.198;2022-11-15T09:09:34;11.40;;;7.30;;
483;SDS011;228;48.922;12.198;2022-11-15T09:12:18;11.53;;;7.73;;
483;SDS011;228;48.922;12.198;2022-11-15T09:15:04;13.10;;;8.03;;
483;SDS011;228;48.922;12.198;2022-11-15T09:17:50;9.97;;;7.10;;
483;SDS011;228;48.922;12.198;2022-11-15T09:20:34;12.47;;;7.47;;
483;SDS011;228;48.922;12.198;2022-11-15T09:23:19;10.50;;;7.37;;
483;SDS011;228;48.922;12.198;2022-11-15T09:26:04;11.27;;;7.60;;
483;SDS011;228;48.922;12.198;2022-11-15T09:28:49;12.37;;;6.67;;
483;SDS011;228;48.922;12.198;2022-11-15T09:31:34;11.27;;;7.47;;
483;SDS011;228;48.922;12.198;2022-11-15T09:34:19;10.83;;;7.20;;
483;SDS011;228;48.922;12.198;2022-11-15T09:37:04;11.07;;;8.10;;
483;SDS011;228;48.922;12.198;2022-11-15T09:39:49;9.80;;;7.07;;
483;SDS011;228;48.922;12.198;2022-11-15T09:42:58;9.80;;;7.47;;
483;SDS011;228;48.922;12.198;2022-11-15T09:46:15;12.17;;;7.50;;
483;SDS011;228;48.922;12.198;2022-11-15T09:49:30;10.03;;;7.13;;
483;SDS011;228;48.922;12.198;2022-11-15T09:52:13;12.60;;;7.87;;
483;SDS011;228;48.922;12.198;2022-11-15T09:54:47;12.33;;;8.53;;
483;SDS011;228;48.922;12.198;2022-11-15T09:57:16;10.50;;;8.10;;
483;SDS011;228;48.922;12.198;2022-11-15T10:02:43;11.23;;;8.50;;
483;SDS011;228;48.922;12.198;2022-11-15T10:05:43;13.13;;;9.10;;
483;SDS011;228;48.922;12.198;2022-11-15T10:11:06;12.40;;;8.63;;
483;SDS011;228;48.922;12.198;2022-11-15T10:13:37;12.07;;;8.73;;
483;SDS011;228;48.922;12.198;2022-11-15T10:24:52;13.17;;;8.47;;
483;SDS011;228;48.922;12.198;2022-11-15T10:27:53;10.63;;;8.23;;
483;SDS011;228;48.922;12.198;2022-11-15T10:30:21;12.03;;;8.30;;
483;SDS011;228;48.922;12.198;2022-11-15T10:32:49;12.30;;;9.33;;
483;SDS011;228;48.922;12.198;2022-11-15T10:35:19;11.73;;;7.87;;
483;SDS011;228;48.922;12.198;2022-11-15T10:38:05;11.90;;;8.27;;
483;SDS011;228;48.922;12.198;2022-11-15T10:40:33;12.57;;;8.70;;
483;SDS011;228;48.922;12.198;2022-11-15T10:43:05;12.47;;;9.00;;
483;SDS011;228;48.922;12.198;2022-11-15T10:45:35;12.40;;;8.30;;
483;SDS011;228;48.922;12.198;2022-11-15T10:50:40;10.83;;;8.00;;
483;SDS011;228;48.922;12.198;2022-11-15T10:55:40;12.67;;;8.90;;
483;SDS011;228;48.922;12.198;2022-11-15T10:58:26;10.40;;;8.37;;
483;SDS011;228;48.922;12.198;2022-11-15T11:03:45;15.67;;;9.63;;
483;SDS011;228;48.922;12.198;2022-11-15T11:06:31;12.60;;;9.13;;
483;SDS011;228;48.922;12.198;2022-11-15T11:09:22;13.73;;;9.30;;
483;SDS011;228;48.922;12.198;2022-11-15T11:12:10;13.40;;;9.47;;
483;SDS011;228;48.922;12.198;2022-11-15T11:14:37;13.57;;;10.00;;
483;SDS011;228;48.922;12.198;2022-11-15T11:22:41;13.87;;;9.40;;
483;SDS011;228;48.922;12.198;2022-11-15T11:25:34;12.80;;;9.07;;
483;SDS011;228;48.922;12.198;2022-11-15T11:42:59;9.75;;;8.05;;
483;SDS011;228;48.922;12.198;2022-11-15T11:49:26;10.00;;;8.45;;
483;SDS011;228;48.922;12.198;2022-11-15T12:12:06;9.40;;;8.27;;
483;SDS011;228;48.922;12.198;2022-11-15T12:17:31;9.82;;;8.52;;
483;SDS011;228;48.922;12.198;2022-11-15T12:19:58;9.32;;;7.72;;
483;SDS011;228;48.922;12.198;2022-11-15T12:28:21;8.43;;;7.38;;
483;SDS011;228;48.922;12.198;2022-11-15T12:31:11;8.82;;;7.18;;
483;SDS011;228;48.922;12.198;2022-11-15T12:33:56;9.57;;;7.80;;
483;SDS011;228;48.922;12.198;2022-11-15T12:38:50;10.80;;;8.57;;
483;SDS011;228;48.922;12.198;2022-11-15T12:41:26;9.25;;;7.82;;
483;SDS011;228;48.922;12.198;2022-11-15T12:44:01;8.52;;;7.63;;
483;SDS011;228;48.922;12.198;2022-11-15T12:52:09;9.40;;;8.32;;
483;SDS011;228;48.922;12.198;2022-11-15T13:02:38;9.77;;;8.15;;
483;SDS011;228;48.922;12.198;2022-11-15T13:17:41;8.60;;;7.35;;
483;SDS011;228;48.922;12.198;2022-11-15T13:28:31;7.53;;;6.72;;
483;SDS011;228;48.922;12.198;2022-11-15T13:33:50;8.35;;;7.40;;
483;SDS011;228;48.922;12.198;2022-11-15T13:36:19;8.30;;;7.35;;
483;SDS011;228;48.922;12.198;2022-11-15T13:41:33;10.10;;;7.78;;
483;SDS011;228;48.922;12.198;2022-11-15T13:44:01;10.82;;;8.65;;
483;SDS011;228;48.922;12.198;2022-11-15T13:46:30;9.80;;;7.88;;
483;SDS011;228;48.922;12.198;2022-11-15T13:48:59;10.93;;;8.25;;
483;SDS011;228;48.922;12.198;2022-11-15T13:51:37;9.20;;;7.75;;
483;SDS011;228;48.922;12.198;2022-11-15T13:56:38;9.63;;;7.50;;
483;SDS011;228;48.922;12.198;2022-11-15T13:59:10;9.80;;;7.50;;
483;SDS011;228;48.922;12.198;2022-11-15T14:02:01;9.23;;;7.30;;
483;SDS011;228;48.922;12.198;2022-11-15T14:04:38;9.35;;;7.53;;
483;SDS011;228;48.922;12.198;2022-11-15T14:07:20;7.57;;;6.78;;
483;SDS011;228;48.922;12.198;2022-11-15T14:09:50;8.77;;;7.18;;
483;SDS011;228;48.922;12.198;2022-11-15T14:12:35;9.30;;;6.95;;
483;SDS011;228;48.922;12.198;2022-11-15T14:18:01;10.02;;;7.40;;
483;SDS011;228;48.922;12.198;2022-11-15T14:20:32;10.70;;;7.90;;
483;SDS011;228;48.922;12.198;2022-11-15T14:23:04;9.60;;;7.30;;
483;SDS011;228;48.922;12.198;2022-11-15T14:25:57;10.15;;;7.30;;
483;SDS011;228;48.922;12.198;2022-11-15T14:30:51;11.80;;;7.77;;
483;SDS011;228;48.922;12.198;2022-11-15T14:36:13;9.10;;;6.83;;
483;SDS011;228;48.922;12.198;2022-11-15T14:38:42;12.20;;;8.13;;
483;SDS011;228;48.922;12.198;2022-11-15T14:43:50;11.20;;;7.53;;
483;SDS011;228;48.922;12.198;2022-11-15T14:46:17;11.30;;;7.57;;
483;SDS011;228;48.922;12.198;2022-11-15T14:48:44;10.13;;;7.13;;
483;SDS011;228;48.922;12.198;2022-11-15T14:51:14;12.10;;;7.67;;
483;SDS011;228;48.922;12.198;2022-11-15T14:53:42;13.73;;;8.00;;
483;SDS011;228;48.922;12.198;2022-11-15T14:56:10;10.70;;;8.00;;
483;SDS011;228;48.922;12.198;2022-11-15T14:58:37;10.63;;;7.43;;
483;SDS011;228;48.922;12.198;2022-11-15T15:01:10;11.90;;;7.67;;
483;SDS011;228;48.922;12.198;2022-11-15T15:03:46;11.53;;;7.50;;
483;SDS011;228;48.922;12.198;2022-11-15T15:06:12;10.97;;;7.20;;
483;SDS011;228;48.922;12.198;2022-11-15T15:08:39;11.77;;;7.50;;
483;SDS011;228;48.922;12.198;2022-11-15T15:14:04;12.07;;;7.90;;
483;SDS011;228;48.922;12.198;2022-11-15T15:16:30;13.13;;;7.77;;
483;SDS011;228;48.922;12.198;2022-11-15T15:18:57;12.17;;;7.43;;
483;SDS011;228;48.922;12.198;2022-11-15T15:21:23;12.77;;;8.00;;
483;SDS011;228;48.922;12.198;2022-11-15T15:23:52;12.13;;;7.83;;
483;SDS011;228;48.922;12.198;2022-11-15T15:26:20;11.60;;;7.83;;
483;SDS011;228;48.922;12.198;2022-11-15T15:28:47;13.53;;;8.63;;
483;SDS011;228;48.922;12.198;2022-11-15T15:31:14;13.77;;;9.10;;
483;SDS011;228;48.922;12.198;2022-11-15T15:33:40;14.60;;;9.40;;
483;SDS011;228;48.922;12.198;2022-11-15T15:36:13;13.23;;;9.17;;
483;SDS011;228;48.922;12.198;2022-11-15T15:38:42;18.23;;;10.73;;
483;SDS011;228;48.922;12.198;2022-11-15T15:41:11;18.53;;;11.37;;
483;SDS011;228;48.922;12.198;2022-11-15T15:43:38;17.60;;;10.80;;
483;SDS011;228;48.922;12.198;2022-11-15T15:46:12;17.90;;;10.83;;
483;SDS011;228;48.922;12.198;2022-11-15T15:48:40;20.30;;;11.77;;
483;SDS011;228;48.922;12.198;2022-11-15T15:51:07;15.27;;;10.80;;
483;SDS011;228;48.922;12.198;2022-11-15T15:53:33;16.77;;;10.53;;
483;SDS011;228;48.922;12.198;2022-11-15T15:56:00;14.70;;;10.00;;
483;SDS011;228;48.922;12.198;2022-11-15T15:58:26;16.50;;;11.10;;
483;SDS011;228;48.922;12.198;2022-11-15T16:00:52;16.63;;;10.10;;
483;SDS011;228;48.922;12.198;2022-11-15T16:03:18;17.87;;;10.63;;
483;SDS011;228;48.922;12.198;2022-11-15T16:05:44;18.63;;;9.63;;
483;SDS011;228;48.922;12.198;2022-11-15T16:08:18;14.53;;;9.60;;
483;SDS011;228;48.922;12.198;2022-11-15T16:10:49;14.80;;;9.73;;
483;SDS011;228;48.922;12.198;2022-11-15T16:13:16;18.37;;;10.23;;
483;SDS011;228;48.922;12.198;2022-11-15T16:15:43;17.30;;;10.07;;
483;SDS011;228;48.922;12.198;2022-11-15T16:18:12;27.30;;;12.70;;
483;SDS011;228;48.922;12.198;2022-11-15T16:20:45;22.57;;;12.47;;
483;SDS011;228;48.922;12.198;2022-11-15T16:23:21;34.80;;;14.40;;
483;SDS011;228;48.922;12.198;2022-11-15T16:25:50;24.87;;;12.37;;
483;SDS011;228;48.922;12.198;2022-11-15T16:28:22;29.30;;;13.30;;
483;SDS011;228;48.922;12.198;2022-11-15T16:31:08;22.87;;;12.70;;
483;SDS011;228;48.922;12.198;2022-11-15T16:33:36;20.80;;;12.93;;
483;SDS011;228;48.922;12.198;2022-11-15T16:36:03;20.23;;;12.33;;
483;SDS011;228;48.922;12.198;2022-11-15T16:38:31;27.23;;;16.90;;
483;SDS011;228;48.922;12.198;2022-11-15T16:40:57;22.13;;;13.43;;
483;SDS011;228;48.922;12.198;2022-11-15T16:43:24;22.27;;;12.60;;
483;SDS011;228;48.922;12.198;2022-11-15T16:45:50;22.27;;;13.87;;
483;SDS011;228;48.922;12.198;2022-11-15T16:48:21;19.87;;;13.10;;
483;SDS011;228;48.922;12.198;2022-11-15T16:50:50;22.13;;;11.87;;
483;SDS011;228;48.922;12.198;2022-11-15T16:53:20;16.50;;;11.00;;
483;SDS011;228;48.922;12.198;2022-11-15T16:55:47;19.63;;;11.10;;
483;SDS011;228;48.922;12.198;2022-11-15T16:58:14;17.57;;;10.90;;
483;SDS011;228;48.922;12.198;2022-11-15T17:00:40;20.97;;;11.57;;
483;SDS011;228;48.922;12.198;2022-11-15T17:03:06;18.20;;;10.73;;
483;SDS011;228;48.922;12.198;2022-11-15T17:05:32;14.57;;;9.33;;
483;SDS011;228;48.922;12.198;2022-11-15T17:07:58;15.93;;;10.13;;
483;SDS011;228;48.922;12.198;2022-11-15T17:10:24;13.07;;;8.73;;
483;SDS011;228;48.922;12.198;2022-11-15T17:12:51;18.37;;;10.53;;
483;SDS011;228;48.922;12.198;2022-11-15T17:15:19;16.83;;;10.63;;
483;SDS011;228;48.922;12.198;2022-11-15T17:17:52;19.10;;;10.03;;
483;SDS011;228;48.922;12.198;2022-11-15T17:20:20;18.30;;;10.97;;
483;SDS011;228;48.922;12.198;2022-11-15T17:22:48;16.97;;;10.73;;
483;SDS011;228;48.922;12.198;2022-11-15T17:25:15;17.43;;;10.87;;
483;SDS011;228;48.922;12.198;2022-11-15T17:27:41;16.27;;;10.20;;
483;SDS011;228;48.922;12.198;2022-11-15T17:30:08;18.00;;;10.67;;
483;SDS011;228;48.922;12.198;2022-11-15T17:32:37;15.87;;;10.23;;
483;SDS011;228;48.922;12.198;2022-11-15T17:35:03;15.87;;;9.90;;
483;SDS011;228;48.922;12.198;2022-11-15T17:37:33;23.97;;;14.40;;
483;SDS011;228;48.922;12.198;2022-11-15T17:40:00;21.30;;;13.00;;
483;SDS011;228;48.922;12.198;2022-11-15T17:42:26;21.43;;;12.23;;
483;SDS011;228;48.922;12.198;2022-11-15T17:44:52;20.83;;;12.37;;
483;SDS011;228;48.922;12.198;2022-11-15T17:47:18;19.97;;;11.83;;
483;SDS011;228;48.922;12.198;2022-11-15T17:49:44;22.13;;;13.83;;
483;SDS011;228;48.922;12.198;2022-11-15T17:52:10;21.27;;;13.43;;
483;SDS011;228;48.922;12.198;2022-11-15T17:54:36;25.43;;;16.63;;
483;SDS011;228;48.922;12.198;2022-11-15T17:57:02;26.40;;;16.83;;
483;SDS011;228;48.922;12.198;2022-11-15T17:59:28;25.23;;;15.80;;
483;SDS011;228;48.922;12.198;2022-11-15T18:01:54;27.13;;;18.13;;
483;SDS011;228;48.922;12.198;2022-11-15T18:04:20;24.47;;;14.93;;
483;SDS011;228;48.922;12.198;2022-11-15T18:06:52;22.73;;;13.40;;
483;SDS011;228;48.922;12.198;2022-11-15T18:09:19;21.27;;;13.93;;
483;SDS011;228;48.922;12.198;2022-11-15T18:11:46;19.90;;;13.43;;
483;SDS011;228;48.922;12.198;2022-11-15T18:14:16;24.57;;;14.73;;
483;SDS011;228;48.922;12.198;2022-11-15T18:16:43;23.63;;;14.80;;
483;SDS011;228;48.922;12.198;2022-11-15T18:19:09;28.60;;;17.67;;
483;SDS011;228;48.922;12.198;2022-11-15T18:21:37;31.47;;;19.27;;
483;SDS011;228;48.922;12.198;2022-11-15T18:24:25;31.47;;;19.73;;
483;SDS011;228;48.922;12.198;2022-11-15T18:27:00;29.70;;;19.63;;
483;SDS011;228;48.922;12.198;2022-11-15T18:29:27;36.60;;;22.57;;
483;SDS011;228;48.922;12.198;2022-11-15T18:31:54;33.83;;;21.67;;
483;SDS011;228;48.922;12.198;2022-11-15T18:34:23;31.90;;;21.70;;
483;SDS011;228;48.922;12.198;2022-11-15T18:36:56;34.23;;;20.20;;
483;SDS011;228;48.922;12.198;2022-11-15T18:39:22;31.90;;;19.93;;
483;SDS011;228;48.922;12.198;2022-11-15T18:41:48;35.40;;;23.33;;
483;SDS011;228;48.922;12.198;2022-11-15T18:44:14;35.67;;;21.20;;
483;SDS011;228;48.922;12.198;2022-11-15T18:46:41;31.33;;;19.70;;
483;SDS011;228;48.922;12.198;2022-11-15T18:49:09;30.43;;;19.40;;
483;SDS011;228;48.922;12.198;2022-11-15T18:51:38;35.43;;;19.67;;
483;SDS011;228;48.922;12.198;2022-11-15T18:54:07;34.13;;;21.03;;
483;SDS011;228;48.922;12.198;2022-11-15T18:56:35;32.63;;;19.73;;
483;SDS011;228;48.922;12.198;2022-11-15T18:59:02;30.77;;;19.57;;
483;SDS011;228;48.922;12.198;2022-11-15T19:01:36;33.90;;;21.00;;
483;SDS011;228;48.922;12.198;2022-11-15T19:04:07;37.63;;;22.17;;
483;SDS011;228;48.922;12.198;2022-11-15T19:06:38;29.13;;;18.20;;
483;SDS011;228;48.922;12.198;2022-11-15T19:09:06;29.93;;;19.17;;
483;SDS011;228;48.922;12.198;2022-11-15T19:11:35;25.13;;;15.43;;
483;SDS011;228;48.922;12.198;2022-11-15T19:14:04;23.47;;;14.90;;